Time;durP1;ratioP1;P1;durP2;ratioP2;P2;SDS_P1;SDS_P2;PMS_P1;PMS_P2;Temp;Humidity;BMP_temperature;BMP_pressure;BME280_temperature;BME280_humidity;BME280_pressure;Samples;Min_cycle;Max_cycle;Signal;HPM_P1;HPM_P2
2022/07/03 00:01:12;;;;;;;2.05;1.27;;;21.00;99.90;;;;;;7389290;19;20736;-73
2022/07/03 00:03:38;;;;;;;1.67;1.27;;;20.60;99.90;;;;;;7385972;19;20530;-73
2022/07/03 00:06:04;;;;;;;2.20;1.35;;;20.50;99.90;;;;;;7386406;19;20147;-74
2022/07/03 00:08:30;;;;;;;2.78;1.30;;;20.50;99.90;;;;;;7388222;19;20164;-74
2022/07/03 00:10:56;;;;;;;1.75;1.17;;;20.60;99.90;;;;;;7386900;19;20146;-75
2022/07/03 00:13:22;;;;;;;2.15;1.40;;;20.50;99.90;;;;;;7389196;19;20158;-74
2022/07/03 00:15:47;;;;;;;2.00;1.65;;;20.50;99.90;;;;;;7384028;19;20138;-73
2022/07/03 00:18:13;;;;;;;1.50;1.40;;;20.50;99.90;;;;;;7388117;19;20138;-74
2022/07/03 00:20:48;;;;;;;2.83;1.50;;;20.60;99.90;;;;;;7384964;19;20214;-73
2022/07/03 00:23:17;;;;;;;1.52;1.30;;;20.50;99.90;;;;;;7389688;19;20172;-72
2022/07/03 00:25:44;;;;;;;4.38;1.30;;;20.40;99.90;;;;;;7388911;19;20861;-74
2022/07/03 00:28:10;;;;;;;1.50;1.30;;;20.40;99.90;;;;;;7389589;19;20142;-73
2022/07/03 00:30:36;;;;;;;2.03;1.38;;;20.20;99.90;;;;;;7398555;19;20150;-74
2022/07/03 00:33:03;;;;;;;1.63;1.30;;;20.10;99.90;;;;;;7396164;19;20147;-73
2022/07/03 00:35:33;;;;;;;2.63;1.50;;;20.00;99.90;;;;;;7390130;19;20150;-74
2022/07/03 00:37:59;;;;;;;4.65;1.70;;;20.10;99.90;;;;;;7398831;19;20152;-74
2022/07/03 00:40:25;;;;;;;2.45;1.80;;;20.30;99.90;;;;;;7392036;19;20620;-73
2022/07/03 00:42:53;;;;;;;3.15;1.58;;;20.50;99.90;;;;;;7393370;19;20141;-73
2022/07/03 00:45:20;;;;;;;2.00;1.20;;;20.70;99.90;;;;;;7393828;19;20146;-73
2022/07/03 00:47:47;;;;;;;2.25;1.50;;;20.80;99.90;;;;;;7391385;19;20161;-73
2022/07/03 00:50:13;;;;;;;2.38;1.80;;;20.90;99.90;;;;;;7397132;19;20593;-72
2022/07/03 00:52:46;;;;;;;2.53;1.70;;;20.90;99.90;;;;;;7392373;19;20487;-73
2022/07/03 00:55:16;;;;;;;1.70;1.58;;;20.90;99.90;;;;;;7394260;19;20138;-74
2022/07/03 00:57:47;;;;;;;3.45;1.38;;;21.00;99.90;;;;;;7394571;19;20134;-73
2022/07/03 01:00:14;;;;;;;3.15;1.58;;;21.00;99.90;;;;;;7391941;19;20153;-74
2022/07/03 01:02:40;;;;;;;1.98;1.38;;;21.10;99.90;;;;;;7398571;19;20163;-74
2022/07/03 01:05:29;;;;;;;3.67;1.65;;;21.20;99.90;;;;;;7392171;19;20485;-74
2022/07/03 01:08:07;;;;;;;2.60;1.75;;;20.90;99.90;;;;;;7393173;19;20265;-74
2022/07/03 01:10:41;;;;;;;1.88;1.70;;;20.90;99.90;;;;;;7393537;19;20486;-73
2022/07/03 01:13:17;;;;;;;2.35;1.60;;;20.70;99.90;;;;;;7397365;19;20652;-72
2022/07/03 01:15:59;;;;;;;1.40;1.30;;;20.70;99.90;;;;;;7394353;19;20123;-73
2022/07/03 01:18:46;;;;;;;1.77;1.55;;;20.80;99.90;;;;;;7395545;19;20160;-72
2022/07/03 01:21:18;;;;;;;2.08;1.30;;;20.90;99.90;;;;;;7388957;19;20258;-72
2022/07/03 01:24:02;;;;;;;1.73;1.40;;;21.00;99.90;;;;;;7396858;19;20190;-74
2022/07/03 01:26:32;;;;;;;1.33;1.20;;;21.00;99.90;;;;;;7394320;19;20170;-73
2022/07/03 01:29:07;;;;;;;2.75;1.30;;;21.00;99.90;;;;;;7392205;19;20222;-73
2022/07/03 01:31:36;;;;;;;1.75;1.40;;;21.00;99.90;;;;;;7392014;19;20141;-74
2022/07/03 01:34:03;;;;;;;3.25;1.80;;;21.10;99.90;;;;;;7393382;19;20512;-75
2022/07/03 01:36:30;;;;;;;2.50;1.90;;;21.10;99.90;;;;;;7389170;19;20153;-75
2022/07/03 01:38:59;;;;;;;2.85;1.90;;;21.20;99.90;;;;;;7391251;19;20175;-75
2022/07/03 01:41:29;;;;;;;1.48;1.30;;;21.00;99.90;;;;;;7391267;19;20170;-74
2022/07/03 01:43:57;;;;;;;1.70;1.40;;;20.50;99.90;;;;;;7390735;19;20127;-73
2022/07/03 01:46:29;;;;;;;1.75;1.50;;;20.50;99.90;;;;;;7388921;19;20170;-74
2022/07/03 01:48:56;;;;;;;2.35;1.45;;;20.60;99.90;;;;;;7387835;19;20151;-74
2022/07/03 01:51:23;;;;;;;3.97;1.90;;;20.60;99.90;;;;;;7393713;19;20589;-73
2022/07/03 01:53:50;;;;;;;2.65;1.73;;;20.60;99.90;;;;;;7391377;19;20151;-73
2022/07/03 01:56:21;;;;;;;2.72;1.70;;;20.70;99.90;;;;;;7393585;19;20135;-74
2022/07/03 01:58:47;;;;;;;4.50;1.52;;;20.70;99.90;;;;;;7388607;19;20567;-75
2022/07/03 02:01:28;;;;;;;1.65;1.38;;;20.50;99.90;;;;;;7393935;19;20166;-73
2022/07/03 02:04:15;;;;;;;2.47;1.70;;;20.50;99.90;;;;;;7388293;19;20208;-73
2022/07/03 02:06:45;;;;;;;2.13;1.63;;;20.50;99.90;;;;;;7390093;19;20174;-73
2022/07/03 02:09:13;;;;;;;2.17;1.50;;;20.50;99.90;;;;;;7385402;19;20222;-74
2022/07/03 02:11:43;;;;;;;2.13;1.40;;;20.60;99.90;;;;;;7390285;19;20150;-72
2022/07/03 02:14:17;;;;;;;2.17;1.58;;;20.70;99.90;;;;;;7390135;19;20133;-72
2022/07/03 02:17:04;;;;;;;2.08;1.40;;;20.70;99.90;;;;;;7385494;19;20159;-74
2022/07/03 02:22:46;;;;;;;2.10;1.30;;;20.80;99.90;;;;;;7425471;19;20457;-73
2022/07/03 02:25:22;;;;;;;1.83;1.35;;;20.80;99.90;;;;;;7428431;19;20704;-73
2022/07/03 02:28:02;;;;;;;1.92;1.20;;;20.80;99.90;;;;;;7420501;19;20160;-74
2022/07/03 02:30:28;;;;;;;1.67;1.05;;;20.80;99.90;;;;;;7424636;19;20497;-74
2022/07/03 02:32:58;;;;;;;1.25;0.98;;;20.30;99.90;;;;;;7422648;19;20146;-73
2022/07/03 02:35:32;;;;;;;1.90;1.30;;;20.10;99.90;;;;;;7420518;19;20622;-72
2022/07/03 02:38:30;;;;;;;1.40;1.30;;;19.90;99.90;;;;;;7426481;19;20145;-73
2022/07/03 02:41:08;;;;;;;1.85;1.48;;;20.10;99.90;;;;;;7420854;19;20186;-73
2022/07/03 02:43:57;;;;;;;4.72;1.50;;;20.10;99.90;;;;;;7425547;19;20130;-73
2022/07/03 02:46:49;;;;;;;2.15;1.48;;;20.40;99.90;;;;;;7425685;19;20130;-74
2022/07/03 02:49:39;;;;;;;4.35;1.75;;;20.40;99.90;;;;;;7425939;19;20145;-72
2022/07/03 02:52:08;;;;;;;2.85;1.25;;;20.50;99.90;;;;;;7428458;19;20473;-74
2022/07/03 02:54:40;;;;;;;5.07;1.50;;;20.40;99.90;;;;;;7426618;19;20134;-74
2022/07/03 02:57:07;;;;;;;1.90;1.30;;;20.40;99.90;;;;;;7426418;19;20131;-73
2022/07/03 02:59:45;;;;;;;1.65;1.20;;;20.40;99.90;;;;;;7427496;19;20142;-73
2022/07/03 03:02:23;;;;;;;1.70;1.50;;;20.50;99.90;;;;;;7424452;19;20162;-74
2022/07/03 03:04:59;;;;;;;2.75;1.60;;;20.60;99.90;;;;;;7422875;19;20146;-73
2022/07/03 03:07:53;;;;;;;3.00;1.70;;;20.60;99.90;;;;;;7427826;19;20133;-73
2022/07/03 03:10:20;;;;;;;1.55;1.25;;;20.50;99.90;;;;;;7421686;19;20480;-72
2022/07/03 03:13:03;;;;;;;1.60;1.10;;;20.30;99.90;;;;;;7424173;19;20206;-74
2022/07/03 03:15:30;;;;;;;2.10;1.15;;;20.10;99.90;;;;;;7423004;19;20229;-72
2022/07/03 03:18:03;;;;;;;1.10;1.00;;;20.10;99.90;;;;;;7421762;19;20154;-73
2022/07/03 03:20:31;;;;;;;1.70;1.08;;;20.10;99.90;;;;;;7424561;19;20146;-74
2022/07/03 03:23:00;;;;;;;1.13;1.02;;;20.10;99.90;;;;;;7425027;19;20161;-73
2022/07/03 03:25:26;;;;;;;1.77;1.13;;;20.00;99.90;;;;;;7426371;19;20883;-73
2022/07/03 03:27:52;;;;;;;1.50;1.13;;;20.00;99.90;;;;;;7420935;19;20138;-74
2022/07/03 03:30:18;;;;;;;1.33;1.00;;;20.20;99.90;;;;;;7424224;19;20153;-74
2022/07/03 03:32:45;;;;;;;2.25;1.30;;;20.40;99.90;;;;;;7407782;19;20155;-73
2022/07/03 03:35:10;;;;;;;2.40;1.25;;;20.50;99.90;;;;;;7394577;19;20872;-73
2022/07/03 03:37:36;;;;;;;1.80;1.42;;;20.60;99.90;;;;;;7397685;19;20176;-72
2022/07/03 03:40:03;;;;;;;1.55;1.10;;;20.60;99.90;;;;;;7393216;19;20141;-72
2022/07/03 03:42:29;;;;;;;2.25;1.00;;;20.60;99.90;;;;;;7392988;19;20217;-75
2022/07/03 03:44:55;;;;;;;1.55;1.30;;;20.60;99.90;;;;;;7395885;19;20521;-73
2022/07/03 03:47:21;;;;;;;1.35;0.98;;;20.60;99.90;;;;;;7396333;19;20135;-73
2022/07/03 03:49:47;;;;;;;1.58;1.13;;;20.50;99.90;;;;;;7393812;19;20616;-74
2022/07/03 03:52:12;;;;;;;1.42;0.98;;;20.50;99.90;;;;;;7396390;19;20621;-73
2022/07/03 03:54:38;;;;;;;2.28;1.30;;;20.30;99.90;;;;;;7394192;19;20145;-74
2022/07/03 03:57:21;;;;;;;1.33;1.02;;;20.20;99.90;;;;;;7395799;19;20202;-75
2022/07/03 03:59:47;;;;;;;1.30;1.15;;;20.20;99.90;;;;;;7390963;19;20138;-75
2022/07/03 04:02:13;;;;;;;2.58;1.30;;;20.20;99.90;;;;;;7391228;19;20139;-75
2022/07/03 04:04:39;;;;;;;1.00;0.90;;;20.30;99.90;;;;;;7395277;19;20174;-75
2022/07/03 04:07:05;;;;;;;1.10;1.00;;;20.30;99.90;;;;;;7395169;19;20431;-73
2022/07/03 04:09:31;;;;;;;1.80;1.30;;;20.10;99.90;;;;;;7394239;19;20138;-75
2022/07/03 04:11:58;;;;;;;1.23;1.13;;;19.90;99.90;;;;;;7394426;19;20189;-72
2022/07/03 04:14:24;;;;;;;1.33;1.10;;;19.80;99.90;;;;;;7393944;19;20226;-75
2022/07/03 04:16:50;;;;;;;1.08;0.90;;;19.90;99.90;;;;;;7393849;19;20142;-72
2022/07/03 04:19:15;;;;;;;1.10;1.00;;;19.80;99.90;;;;;;7394521;19;20878;-73
2022/07/03 04:21:41;;;;;;;1.10;1.00;;;19.70;99.90;;;;;;7393765;19;20142;-74
2022/07/03 04:24:07;;;;;;;1.05;0.95;;;19.60;99.90;;;;;;7396610;19;20135;-73
2022/07/03 04:26:33;;;;;;;2.15;1.00;;;19.60;99.90;;;;;;7395045;19;20130;-74
2022/07/03 04:28:59;;;;;;;2.10;1.10;;;19.80;99.90;;;;;;7394226;19;20135;-72
2022/07/03 04:31:25;;;;;;;0.90;0.90;;;19.90;99.90;;;;;;7396485;19;20660;-73
2022/07/03 04:33:50;;;;;;;1.15;1.00;;;19.70;99.90;;;;;;7393146;19;20139;-74
2022/07/03 04:36:16;;;;;;;1.10;1.00;;;19.60;99.90;;;;;;7395197;19;20150;-75
2022/07/03 04:38:43;;;;;;;1.20;1.10;;;19.70;99.90;;;;;;7392537;19;20194;-74
2022/07/03 04:41:09;;;;;;;1.02;0.90;;;19.80;99.90;;;;;;7393296;19;20162;-72
2022/07/03 04:43:36;;;;;;;1.00;0.90;;;20.00;99.90;;;;;;7391639;19;20139;-72
2022/07/03 04:46:02;;;;;;;1.40;0.95;;;20.00;99.90;;;;;;7391611;19;20162;-74
2022/07/03 04:48:29;;;;;;;2.05;1.02;;;19.90;99.90;;;;;;7394909;19;20688;-74
2022/07/03 04:50:55;;;;;;;1.00;0.90;;;19.80;99.90;;;;;;7395585;19;20166;-74
2022/07/03 04:53:21;;;;;;;1.30;1.10;;;19.80;99.90;;;;;;7394937;19;20142;-73
2022/07/03 04:55:47;;;;;;;1.30;1.17;;;19.80;99.90;;;;;;7393863;19;20146;-74
2022/07/03 04:58:13;;;;;;;1.10;1.00;;;19.90;99.90;;;;;;7393142;19;20621;-72
2022/07/03 05:00:42;;;;;;;1.27;1.00;;;20.00;99.90;;;;;;7391650;19;20157;-74
2022/07/03 05:03:08;;;;;;;1.52;1.10;;;20.00;99.90;;;;;;7392149;19;20222;-74
2022/07/03 05:05:33;;;;;;;1.15;0.90;;;20.10;99.90;;;;;;7390648;19;20142;-72
2022/07/03 05:08:00;;;;;;;1.55;0.80;;;20.20;99.90;;;;;;7393868;19;20258;-74
2022/07/03 05:10:26;;;;;;;1.30;1.20;;;20.20;99.90;;;;;;7393109;19;20153;-74
2022/07/03 05:12:53;;;;;;;1.02;0.93;;;20.30;99.90;;;;;;7393752;19;20615;-74
2022/07/03 05:15:19;;;;;;;0.80;0.80;;;20.30;99.90;;;;;;7391871;19;20127;-75
2022/07/03 05:17:45;;;;;;;1.35;0.93;;;20.40;99.90;;;;;;7392018;19;20599;-74
2022/07/03 05:20:29;;;;;;;4.53;1.80;;;20.20;99.90;;;;;;7392877;19;20127;-73
2022/07/03 05:23:01;;;;;;;2.40;1.40;;;20.10;99.90;;;;;;7391882;19;20147;-75
2022/07/03 05:25:28;;;;;;;1.73;1.10;;;20.20;99.90;;;;;;7395545;19;20152;-72
2022/07/03 05:27:54;;;;;;;1.27;1.10;;;20.30;99.90;;;;;;7391602;19;20470;-72
2022/07/03 05:30:21;;;;;;;2.40;1.10;;;20.30;99.90;;;;;;7392483;19;20143;-74
2022/07/03 05:32:49;;;;;;;3.28;1.17;;;20.30;99.90;;;;;;7391162;19;20154;-74
2022/07/03 05:35:15;;;;;;;1.67;1.30;;;20.30;99.90;;;;;;7393868;19;20127;-74
2022/07/03 05:37:41;;;;;;;1.48;1.05;;;20.30;99.90;;;;;;7393807;19;20488;-74
2022/07/03 05:40:08;;;;;;;1.42;1.20;;;20.30;99.90;;;;;;7390650;19;20119;-72
2022/07/03 05:42:34;;;;;;;1.95;1.05;;;20.30;99.90;;;;;;7389879;19;20490;-72
2022/07/03 05:45:00;;;;;;;1.98;1.30;;;20.40;99.90;;;;;;7394894;19;20134;-72
2022/07/03 05:47:26;;;;;;;3.80;1.20;;;20.60;99.90;;;;;;7390501;19;20138;-72
2022/07/03 05:49:52;;;;;;;2.22;1.58;;;20.60;99.90;;;;;;7392533;19;20138;-74
2022/07/03 05:52:18;;;;;;;1.55;0.90;;;20.60;99.90;;;;;;7391285;19;20138;-73
2022/07/03 05:54:44;;;;;;;1.63;0.90;;;20.80;99.90;;;;;;7391563;19;20150;-74
2022/07/03 05:57:10;;;;;;;3.05;1.00;;;20.90;99.90;;;;;;7389320;19;20214;-72
2022/07/03 05:59:36;;;;;;;1.48;1.20;;;21.10;99.90;;;;;;7393098;19;20869;-72
2022/07/03 06:02:02;;;;;;;4.15;1.33;;;21.10;99.90;;;;;;7389657;19;20135;-72
2022/07/03 06:04:28;;;;;;;1.92;1.25;;;21.20;99.90;;;;;;7392761;19;20171;-73
2022/07/03 06:06:55;;;;;;;1.40;1.30;;;21.40;99.90;;;;;;7390197;19;20841;-72
2022/07/03 06:09:22;;;;;;;1.73;1.20;;;21.60;99.90;;;;;;7389019;19;20144;-74
2022/07/03 06:11:48;;;;;;;1.40;1.27;;;21.50;99.90;;;;;;7390210;19;20163;-74
2022/07/03 06:14:15;;;;;;;2.50;1.50;;;21.70;99.90;;;;;;7390469;19;20495;-74
2022/07/03 06:16:40;;;;;;;2.28;1.38;;;21.90;99.90;;;;;;7392955;19;20138;-74
2022/07/03 06:19:06;;;;;;;3.30;1.30;;;22.50;99.90;;;;;;7392398;19;20153;-73
2022/07/03 06:21:33;;;;;;;1.75;1.30;;;22.90;99.90;;;;;;7390125;19;20159;-71
2022/07/03 06:23:59;;;;;;;2.47;1.15;;;23.10;99.90;;;;;;7389210;19;20149;-74
2022/07/03 06:26:26;;;;;;;1.42;1.30;;;23.60;99.90;;;;;;7387329;19;20138;-75
2022/07/03 06:28:52;;;;;;;2.50;1.30;;;24.20;99.90;;;;;;7392836;19;20211;-73
2022/07/03 06:31:18;;;;;;;3.72;1.60;;;25.00;99.90;;;;;;7390268;19;20156;-72
2022/07/03 06:33:44;;;;;;;2.88;1.50;;;25.40;99.90;;;;;;7392066;19;20483;-74
2022/07/03 06:36:09;;;;;;;1.63;1.25;;;25.70;99.90;;;;;;7389249;19;20135;-72
2022/07/03 06:38:35;;;;;;;1.55;1.45;;;26.30;99.90;;;;;;7393106;19;20138;-74
2022/07/03 06:41:01;;;;;;;1.90;1.27;;;26.90;99.90;;;;;;7389453;19;20139;-74
2022/07/03 06:43:27;;;;;;;2.30;1.30;;;27.00;99.90;;;;;;7388913;19;20157;-72
2022/07/03 06:45:53;;;;;;;2.35;1.50;;;27.10;99.90;;;;;;7387385;19;20176;-73
2022/07/03 06:48:18;;;;;;;1.40;1.30;;;27.10;99.90;;;;;;7388702;19;20146;-74
2022/07/03 06:50:45;;;;;;;1.63;1.20;;;26.80;99.90;;;;;;7389565;19;20151;-74
2022/07/03 06:53:11;;;;;;;1.58;1.30;;;26.70;99.90;;;;;;7387458;19;20494;-75
2022/07/03 06:55:37;;;;;;;1.52;1.30;;;27.00;99.90;;;;;;7388773;19;20207;-73
2022/07/03 06:58:03;;;;;;;1.10;0.93;;;27.40;99.90;;;;;;7384578;19;20146;-75
2022/07/03 07:00:31;;;;;;;1.25;1.10;;;27.60;99.90;;;;;;7389731;19;20139;-75
2022/07/03 07:02:57;;;;;;;2.28;1.10;;;27.90;99.90;;;;;;7389240;19;20190;-73
2022/07/03 07:05:22;;;;;;;1.30;1.00;;;27.90;99.90;;;;;;7390004;19;20135;-71
2022/07/03 07:07:49;;;;;;;1.52;1.20;;;28.20;99.90;;;;;;7393111;19;20202;-72
2022/07/03 07:10:15;;;;;;;3.22;1.10;;;28.50;99.90;;;;;;7398365;19;20131;-71
2022/07/03 07:12:41;;;;;;;2.15;1.10;;;28.10;99.90;;;;;;7398785;19;20141;-72
2022/07/03 07:15:07;;;;;;;0.95;0.80;;;29.10;99.90;;;;;;7395415;19;20614;-72
2022/07/03 07:17:33;;;;;;;0.82;0.70;;;29.20;98.70;;;;;;7396212;19;20142;-75
2022/07/03 07:19:58;;;;;;;0.85;0.55;;;30.10;96.20;;;;;;7397449;19;20566;-74
2022/07/03 07:22:25;;;;;;;1.00;0.60;;;30.50;94.40;;;;;;7386334;19;20741;-74
2022/07/03 07:24:51;;;;;;;1.38;0.75;;;31.00;92.30;;;;;;7387427;19;20123;-74
2022/07/03 07:27:17;;;;;;;0.93;0.90;;;31.40;92.50;;;;;;7385337;19;20145;-74
2022/07/03 07:29:43;;;;;;;0.85;0.77;;;31.40;93.20;;;;;;7387608;19;20482;-74
2022/07/03 07:32:09;;;;;;;0.77;0.60;;;31.40;93.20;;;;;;7386514;19;20258;-73
2022/07/03 07:34:35;;;;;;;2.00;0.80;;;31.80;92.10;;;;;;7387333;19;20135;-73
2022/07/03 07:37:00;;;;;;;1.38;0.75;;;31.90;91.60;;;;;;7387412;19;20918;-73
2022/07/03 07:39:26;;;;;;;0.70;0.70;;;32.00;91.50;;;;;;7391576;19;20134;-74
2022/07/03 07:41:52;;;;;;;0.80;0.70;;;32.10;90.60;;;;;;7391322;19;20392;-73
2022/07/03 07:44:18;;;;;;;1.52;0.90;;;31.90;90.30;;;;;;7396453;19;20138;-76
2022/07/03 07:46:44;;;;;;;0.93;0.68;;;32.10;90.40;;;;;;7395335;19;20147;-76
2022/07/03 07:49:09;;;;;;;1.83;0.70;;;32.20;89.60;;;;;;7395367;19;20229;-75
2022/07/03 07:51:35;;;;;;;0.60;0.60;;;32.30;89.70;;;;;;7394994;19;20156;-76
2022/07/03 07:54:01;;;;;;;0.70;0.60;;;32.20;88.30;;;;;;7387942;19;20158;-75
2022/07/03 07:56:27;;;;;;;1.00;0.90;;;32.30;87.50;;;;;;7396625;19;20226;-75
2022/07/03 07:58:53;;;;;;;1.20;0.70;;;32.00;87.40;;;;;;7395986;19;20633;-76
2022/07/03 08:06:50;;;;;;;0.55;0.50;;;32.10;84.60;;;;;;7391676;19;20126;-77
2022/07/03 08:09:16;;;;;;;0.70;0.63;;;32.00;81.20;;;;;;7395340;19;20156;-77
2022/07/03 08:11:42;;;;;;;0.50;0.50;;;32.50;80.80;;;;;;7394439;19;20585;-76
2022/07/03 08:14:10;;;;;;;0.98;0.80;;;32.80;81.10;;;;;;7396411;19;20123;-77
2022/07/03 08:16:38;;;;;;;0.90;0.70;;;32.60;81.40;;;;;;7396361;19;20205;-76
2022/07/03 08:19:04;;;;;;;0.63;0.63;;;32.80;81.20;;;;;;7396965;19;20139;-77
2022/07/03 08:21:30;;;;;;;1.35;0.70;;;32.50;81.00;;;;;;7394132;19;20194;-77
2022/07/03 08:23:56;;;;;;;0.77;0.60;;;32.50;81.80;;;;;;7397052;19;20156;-76
2022/07/03 08:26:21;;;;;;;0.70;0.57;;;32.60;82.40;;;;;;7393596;19;20158;-77
2022/07/03 08:28:47;;;;;;;0.80;0.68;;;32.60;82.30;;;;;;7396256;19;20153;-74
2022/07/03 08:31:13;;;;;;;0.60;0.60;;;33.10;81.20;;;;;;7394248;19;20609;-76
2022/07/03 08:33:38;;;;;;;0.50;0.50;;;33.20;81.10;;;;;;7393327;19;20638;-75
2022/07/03 08:36:05;;;;;;;0.50;0.50;;;33.20;78.80;;;;;;7398048;19;20492;-75
2022/07/03 08:38:33;;;;;;;1.13;0.60;;;33.50;79.80;;;;;;7393206;19;20627;-75
2022/07/03 08:41:03;;;;;;;0.75;0.60;;;33.70;78.00;;;;;;7392409;19;20214;-76
2022/07/03 08:43:29;;;;;;;0.95;0.45;;;33.20;77.20;;;;;;7394666;19;20170;-77
2022/07/03 08:45:57;;;;;;;0.40;0.40;;;33.50;77.40;;;;;;7397028;19;20139;-81
2022/07/03 08:48:24;;;;;;;1.25;0.63;;;33.40;77.40;;;;;;7396467;19;20139;-77
2022/07/03 08:50:52;;;;;;;2.50;0.60;;;32.40;77.90;;;;;;7394975;19;20214;-79
2022/07/03 08:53:18;;;;;;;0.93;0.47;;;32.60;75.50;;;;;;7394901;19;20142;-76
2022/07/03 08:55:47;;;;;;;1.25;0.50;;;32.50;72.40;;;;;;7390770;19;20150;-73
2022/07/03 08:58:14;;;;;;;0.40;0.40;;;31.90;74.20;;;;;;7393851;19;20147;-76
2022/07/03 09:00:41;;;;;;;5.25;0.70;;;31.80;74.80;;;;;;7392608;19;20166;-76
2022/07/03 09:03:11;;;;;;;1.17;0.70;;;31.70;74.40;;;;;;7399726;19;20642;-83
2022/07/03 09:05:41;;;;;;;0.40;0.40;;;31.70;74.40;;;;;;7394866;19;20165;-77
2022/07/03 09:08:08;;;;;;;0.65;0.40;;;31.50;74.60;;;;;;7394423;19;20146;-84
2022/07/03 09:10:34;;;;;;;0.60;0.60;;;31.50;74.80;;;;;;7394533;19;20176;-76
2022/07/03 09:13:00;;;;;;;1.13;0.60;;;31.50;74.80;;;;;;7394005;19;20154;-75
2022/07/03 09:15:26;;;;;;;0.35;0.35;;;31.20;74.80;;;;;;7394065;19;20146;-82
2022/07/03 09:18:06;;;;;;;0.73;0.50;;;31.00;75.90;;;;;;7397041;19;20134;-80
2022/07/03 09:20:35;;;;;;;0.80;0.50;;;31.30;75.10;;;;;;7397220;19;20249;-86
2022/07/03 09:23:16;;;;;;;0.85;0.40;;;31.50;73.20;;;;;;7400625;19;20139;-82
2022/07/03 09:25:54;;;;;;;0.57;0.40;;;31.70;72.60;;;;;;7397131;19;20202;-78
2022/07/03 09:28:40;;;;;;;0.70;0.45;;;31.80;71.50;;;;;;7397196;19;20459;-81
2022/07/03 09:31:06;;;;;;;0.90;0.45;;;31.50;72.20;;;;;;7393679;19;20137;-77
2022/07/03 09:33:33;;;;;;;0.60;0.60;;;31.20;72.30;;;;;;7394367;19;20150;-79
2022/07/03 09:35:59;;;;;;;0.50;0.45;;;30.90;74.30;;;;;;7391481;19;20137;-79
2022/07/03 09:38:26;;;;;;;1.60;0.40;;;31.00;75.60;;;;;;7393525;19;20494;-78
2022/07/03 09:40:55;;;;;;;0.80;0.52;;;31.20;75.30;;;;;;7393472;19;20873;-78
2022/07/03 09:43:27;;;;;;;0.95;0.40;;;31.40;74.50;;;;;;7395841;19;20131;-80
2022/07/03 09:46:01;;;;;;;0.50;0.50;;;31.20;74.90;;;;;;7396581;19;20150;-77
2022/07/03 09:48:31;;;;;;;0.60;0.60;;;31.00;73.90;;;;;;7391998;19;20150;-80
2022/07/03 09:51:09;;;;;;;1.63;0.70;;;30.80;76.30;;;;;;7396860;19;20146;-82
2022/07/03 09:53:56;;;;;;;0.57;0.50;;;30.50;74.10;;;;;;7397378;19;20166;-85
2022/07/03 09:56:34;;;;;;;0.50;0.45;;;30.40;75.00;;;;;;7397530;19;20135;-82
2022/07/03 09:59:01;;;;;;;1.35;0.68;;;30.40;75.60;;;;;;7398451;19;20151;-85
2022/07/03 10:01:28;;;;;;;3.72;2.28;;;30.30;75.60;;;;;;7395949;19;20158;-81
2022/07/03 10:04:08;;;;;;;1.05;0.82;;;30.30;75.00;;;;;;7398439;19;20173;-80
2022/07/03 10:06:52;;;;;;;0.73;0.60;;;30.10;74.90;;;;;;7404187;19;20141;-80
2022/07/03 10:09:23;;;;;;;21.10;9.98;;;29.80;75.10;;;;;;7396643;19;20243;-84
2022/07/03 10:11:49;;;;;;;9.45;5.65;;;30.10;77.40;;;;;;7395989;19;20146;-80
2022/07/03 10:14:17;;;;;;;3.10;2.10;;;30.30;77.40;;;;;;7398231;19;20468;-84
2022/07/03 10:16:43;;;;;;;1.63;1.30;;;30.60;76.30;;;;;;7396120;19;20150;-89
2022/07/03 10:19:14;;;;;;;1.83;1.48;;;30.70;75.70;;;;;;7399501;19;20142;-81
2022/07/03 10:21:47;;;;;;;5.30;2.08;;;30.60;75.90;;;;;;7398638;19;20158;-88
2022/07/03 10:24:13;;;;;;;1.95;0.85;;;30.70;77.00;;;;;;7402331;19;20141;-88
2022/07/03 10:26:40;;;;;;;0.68;0.50;;;30.40;77.00;;;;;;7401361;19;20230;-87
2022/07/03 10:29:08;;;;;;;2.40;0.70;;;30.10;76.40;;;;;;7395460;19;20138;-80
2022/07/03 10:31:34;;;;;;;0.50;0.50;;;30.10;77.40;;;;;;7395670;19;20134;-81
2022/07/03 10:34:01;;;;;;;2.92;1.05;;;30.20;77.50;;;;;;7396122;19;20146;-85
2022/07/03 10:36:29;;;;;;;0.50;0.50;;;30.20;77.60;;;;;;7397603;19;20157;-83
2022/07/03 10:38:59;;;;;;;0.43;0.43;;;30.10;77.70;;;;;;7394293;19;20157;-81
2022/07/03 10:47:05;;;;;;;2.25;0.63;;;29.90;77.30;;;;;;7406924;19;20689;-80
2022/07/03 10:49:31;;;;;;;0.85;0.50;;;30.00;77.60;;;;;;7403580;19;20145;-86
2022/07/03 10:52:02;;;;;;;0.50;0.50;;;30.00;78.50;;;;;;7404129;19;20508;-82
2022/07/03 10:54:29;;;;;;;0.85;0.60;;;30.00;77.50;;;;;;7402483;19;20142;-83
2022/07/03 10:56:58;;;;;;;1.98;1.08;;;30.10;77.30;;;;;;7400679;19;20131;-83
2022/07/03 10:59:42;;;;;;;0.70;0.50;;;29.90;78.30;;;;;;7403521;19;20135;-79
2022/07/03 11:02:34;;;;;;;1.67;0.77;;;29.70;77.90;;;;;;7399254;19;20158;-85
2022/07/03 11:04:59;;;;;;;0.50;0.50;;;29.80;79.50;;;;;;7400896;19;20154;-79
2022/07/03 11:07:26;;;;;;;0.93;0.70;;;30.00;78.30;;;;;;7404773;19;20134;-85
2022/07/03 11:10:13;;;;;;;1.10;1.00;;;30.10;78.40;;;;;;7402778;19;20149;-81
2022/07/03 11:12:58;;;;;;;0.77;0.55;;;30.20;78.00;;;;;;7401757;19;20509;-89
2022/07/03 11:15:36;;;;;;;0.70;0.60;;;30.30;79.10;;;;;;7401713;19;20154;-82
2022/07/03 11:18:08;;;;;;;1.30;0.65;;;30.20;77.60;;;;;;7401870;19;20147;-85
2022/07/03 11:20:53;;;;;;;0.52;0.52;;;29.90;79.60;;;;;;7399981;19;20166;-83
2022/07/03 11:23:26;;;;;;;1.77;0.90;;;29.80;80.20;;;;;;7401020;19;20150;-82
2022/07/03 11:26:01;;;;;;;3.22;0.60;;;29.80;79.20;;;;;;7405410;19;20154;-80
2022/07/03 11:28:33;;;;;;;0.98;0.70;;;29.90;78.00;;;;;;7401263;19;20209;-81
2022/07/03 11:31:08;;;;;;;1.08;0.43;;;30.10;77.20;;;;;;7400801;19;20142;-80
2022/07/03 11:33:42;;;;;;;0.85;0.63;;;30.30;77.20;;;;;;7400286;19;20153;-83
2022/07/03 11:36:17;;;;;;;0.82;0.57;;;30.30;77.10;;;;;;7400957;19;20137;-83
2022/07/03 11:38:55;;;;;;;0.60;0.50;;;30.40;77.20;;;;;;7399987;19;20869;-85
2022/07/03 11:41:22;;;;;;;0.47;0.47;;;30.10;77.80;;;;;;7398677;19;20149;-78
2022/07/03 11:44:01;;;;;;;0.65;0.45;;;29.90;78.80;;;;;;7400600;19;20171;-83
2022/07/03 11:46:32;;;;;;;0.50;0.50;;;29.70;79.20;;;;;;7404797;19;20148;-83
2022/07/03 11:49:07;;;;;;;9.63;1.40;;;29.90;80.10;;;;;;7399413;19;20135;-82
2022/07/03 11:51:36;;;;;;;1.23;0.70;;;30.00;79.90;;;;;;7399175;19;20181;-88
2022/07/03 11:54:02;;;;;;;0.82;0.70;;;30.10;79.50;;;;;;7397010;19;20157;-83
2022/07/03 11:56:28;;;;;;;1.25;1.15;;;30.20;79.80;;;;;;7396000;19;20148;-81
2022/07/03 11:58:56;;;;;;;2.35;1.35;;;30.20;81.50;;;;;;7396983;19;20146;-77
2022/07/03 12:01:24;;;;;;;1.42;1.00;;;30.00;81.10;;;;;;7395654;19;20139;-81
2022/07/03 12:04:19;;;;;;;1.00;0.60;;;30.10;78.10;;;;;;7396880;19;20539;-80
2022/07/03 12:06:48;;;;;;;1.08;0.50;;;29.90;79.00;;;;;;7395140;19;20146;-75
2022/07/03 12:09:26;;;;;;;1.60;0.90;;;29.70;82.00;;;;;;7396573;19;20567;-80
2022/07/03 12:12:07;;;;;;;3.55;0.82;;;29.40;83.60;;;;;;7395699;19;20700;-76
2022/07/03 12:14:47;;;;;;;0.70;0.60;;;29.30;81.60;;;;;;7394485;19;20150;-76
2022/07/03 12:17:16;;;;;;;2.28;0.57;;;29.40;80.00;;;;;;7394535;19;20486;-74
2022/07/03 12:19:55;;;;;;;1.02;0.73;;;29.60;79.40;;;;;;7393716;19;20162;-75
2022/07/03 12:22:44;;;;;;;0.95;0.65;;;29.60;79.20;;;;;;7391956;19;20515;-86
2022/07/03 12:25:13;;;;;;;0.70;0.57;;;29.50;78.80;;;;;;7398752;19;20617;-74
2022/07/03 12:27:41;;;;;;;1.83;0.65;;;29.10;83.30;;;;;;7396916;19;20508;-72
2022/07/03 12:30:12;;;;;;;0.55;0.55;;;28.90;85.20;;;;;;7395599;19;20184;-81
2022/07/03 12:32:38;;;;;;;1.85;0.63;;;28.70;81.80;;;;;;7396662;19;20134;-85
2022/07/03 12:35:05;;;;;;;0.85;0.60;;;28.80;85.30;;;;;;7399891;19;20148;-77
2022/07/03 12:37:40;;;;;;;0.70;0.70;;;28.90;84.60;;;;;;7393763;19;20135;-78
2022/07/03 12:40:09;;;;;;;0.60;0.50;;;28.80;85.20;;;;;;7390880;19;20138;-76
2022/07/03 12:42:49;;;;;;;0.68;0.60;;;28.70;84.10;;;;;;7390857;19;20132;-77
2022/07/03 12:45:17;;;;;;;1.42;0.63;;;28.80;84.30;;;;;;7393951;19;20237;-72
2022/07/03 12:47:44;;;;;;;1.17;0.63;;;28.90;82.40;;;;;;7392379;19;20169;-76
2022/07/03 12:50:10;;;;;;;1.17;0.50;;;29.00;84.00;;;;;;7393887;19;20230;-74
2022/07/03 12:52:57;;;;;;;1.13;0.60;;;29.00;82.20;;;;;;7394298;19;20570;-75
2022/07/03 12:55:31;;;;;;;0.60;0.60;;;29.00;81.50;;;;;;7395425;19;20134;-80
2022/07/03 13:01:02;;;;;;;1.05;0.60;;;28.80;83.20;;;;;;7395652;19;20146;-85
2022/07/03 13:03:35;;;;;;;0.65;0.50;;;28.50;86.00;;;;;;7393569;19;20190;-73
2022/07/03 13:06:01;;;;;;;0.65;0.65;;;28.50;85.70;;;;;;7387086;19;20158;-74
2022/07/03 13:08:28;;;;;;;4.13;0.70;;;28.80;82.20;;;;;;7392380;19;20141;-74
2022/07/03 13:10:58;;;;;;;0.70;0.52;;;29.10;83.90;;;;;;7392672;19;20146;-77
2022/07/03 13:13:25;;;;;;;1.15;0.73;;;29.10;80.50;;;;;;7397388;19;20138;-73
2022/07/03 13:15:51;;;;;;;1.35;0.90;;;29.10;84.30;;;;;;7393010;19;20207;-77
2022/07/03 13:18:17;;;;;;;0.95;0.80;;;28.70;83.80;;;;;;7393451;19;20142;-77